Time;durP1;ratioP1;P1;durP2;ratioP2;P2;SDS_P1;SDS_P2;PMS_P1;PMS_P2;Temp;Humidity;BMP_temperature;BMP_pressure;BME280_temperature;BME280_humidity;BME280_pressure;Samples;Min_cycle;Max_cycle;Signal;HPM_P1;HPM_P2
2023/02/01 00:00:07;;;;;;;19.92;3.35;;;15.70;68.40;;;;;;4050340;29;20126;-65
2023/02/01 00:02:48;;;;;;;17.70;4.05;;;15.70;67.60;;;;;;4050774;29;20054;-65
2023/02/01 00:05:29;;;;;;;14.30;3.55;;;15.70;67.60;;;;;;4050461;29;20192;-65
2023/02/01 00:08:10;;;;;;;19.20;4.30;;;15.70;67.60;;;;;;4035102;29;20059;-65
2023/02/01 00:11:00;;;;;;;19.92;3.72;;;15.80;67.30;;;;;;4035162;29;20123;-66
2023/02/01 00:13:43;;;;;;;17.65;3.45;;;15.80;67.10;;;;;;4062287;29;20063;-65
2023/02/01 00:16:25;;;;;;;16.98;3.90;;;15.80;67.20;;;;;;4056419;29;20107;-65
2023/02/01 00:19:10;;;;;;;18.27;3.90;;;15.80;67.30;;;;;;4065754;29;20066;-65
2023/02/01 00:21:51;;;;;;;24.30;4.22;;;15.80;66.90;;;;;;4065756;29;20058;-65
2023/02/01 00:24:32;;;;;;;19.20;3.78;;;15.80;66.60;;;;;;4065571;29;20071;-65
2023/02/01 00:27:17;;;;;;;24.55;4.72;;;15.80;66.90;;;;;;4065476;29;20143;-65
2023/02/01 00:29:58;;;;;;;16.85;3.60;;;15.80;67.20;;;;;;4053997;29;20404;-64
2023/02/01 00:32:39;;;;;;;14.83;3.43;;;15.80;67.30;;;;;;4065391;29;20407;-65
2023/02/01 00:35:19;;;;;;;13.35;3.35;;;15.80;67.00;;;;;;4065306;29;20051;-66
2023/02/01 00:38:01;;;;;;;20.90;3.70;;;15.80;67.00;;;;;;4064987;29;20138;-66
2023/02/01 00:40:41;;;;;;;21.58;4.00;;;15.90;67.10;;;;;;4053031;29;20071;-66
2023/02/01 00:43:24;;;;;;;20.02;3.60;;;16.00;67.00;;;;;;4042364;29;20054;-65
2023/02/01 00:46:05;;;;;;;13.93;4.30;;;16.00;66.40;;;;;;4053293;29;20127;-66
2023/02/01 00:48:46;;;;;;;;;;;16.10;66.20;;;;;;4065499;29;20070;-65
2023/02/01 00:51:29;;;;;;;20.73;3.57;;;16.10;66.30;;;;;;4064928;29;20390;-65
2023/02/01 00:54:09;;;;;;;19.83;3.90;;;16.10;66.70;;;;;;4049508;29;20072;-66
2023/02/01 00:56:50;;;;;;;20.38;4.50;;;16.10;66.80;;;;;;4037734;29;20056;-66
2023/02/01 00:59:33;;;;;;;11.55;2.95;;;16.10;65.70;;;;;;4042845;29;20050;-66
2023/02/01 01:02:15;;;;;;;24.17;4.75;;;16.10;65.40;;;;;;4052954;29;20047;-66
2023/02/01 01:04:55;;;;;;;20.95;4.22;;;16.10;65.40;;;;;;4064520;29;20052;-65
2023/02/01 01:07:36;;;;;;;17.08;3.55;;;16.10;65.90;;;;;;4051705;29;20627;-65
2023/02/01 01:10:17;;;;;;;19.10;4.03;;;16.00;66.90;;;;;;4064415;29;20503;-65
2023/02/01 01:12:59;;;;;;;20.63;3.72;;;15.90;66.20;;;;;;4064319;29;20292;-66
2023/02/01 01:15:42;;;;;;;19.25;3.53;;;15.90;66.50;;;;;;4052841;29;20569;-65
2023/02/01 01:18:23;;;;;;;13.35;3.85;;;15.90;66.60;;;;;;4064810;29;20520;-66
2023/02/01 01:21:06;;;;;;;14.75;3.35;;;15.90;67.40;;;;;;4064845;29;20050;-66
2023/02/01 01:23:48;;;;;;;16.42;3.70;;;15.80;66.50;;;;;;4064609;29;20055;-66
2023/02/01 01:26:29;;;;;;;;;;;15.80;67.80;;;;;;4064794;29;20063;-65
2023/02/01 01:29:10;;;;;;;22.70;4.53;;;15.80;67.10;;;;;;4037141;29;20450;-66
2023/02/01 01:31:53;;;;;;;17.73;4.38;;;15.80;67.10;;;;;;4048768;29;20092;-66
2023/02/01 01:34:33;;;;;;;14.63;4.00;;;15.80;67.10;;;;;;4038666;29;20060;-66
2023/02/01 01:37:14;;;;;;;22.02;4.25;;;15.80;67.40;;;;;;4063303;29;20143;-66
2023/02/01 01:39:56;;;;;;;16.13;3.90;;;15.80;67.20;;;;;;4052592;29;20055;-66
2023/02/01 01:42:38;;;;;;;15.82;3.20;;;15.70;67.10;;;;;;4052554;29;20223;-65
2023/02/01 01:45:24;;;;;;;20.77;4.07;;;15.70;67.10;;;;;;4041185;29;20059;-65
2023/02/01 01:48:12;;;;;;;17.83;3.53;;;15.70;67.00;;;;;;4052311;29;20063;-65
2023/02/01 01:50:58;;;;;;;16.35;3.70;;;15.80;67.00;;;;;;4052767;29;20380;-65
2023/02/01 01:53:43;;;;;;;17.40;3.60;;;15.80;66.80;;;;;;4064398;29;20059;-65
2023/02/01 01:56:26;;;;;;;18.10;3.40;;;15.80;66.80;;;;;;4052586;29;20055;-65
2023/02/01 01:59:08;;;;;;;13.77;3.92;;;15.80;66.80;;;;;;4052649;29;20117;-65
2023/02/01 02:01:49;;;;;;;17.60;3.30;;;15.80;67.10;;;;;;4052329;29;20063;-66
2023/02/01 02:04:32;;;;;;;15.25;3.15;;;15.80;67.30;;;;;;4064127;29;20059;-66
2023/02/01 02:07:18;;;;;;;13.82;3.55;;;15.90;67.00;;;;;;4052575;29;20062;-65
2023/02/01 02:09:59;;;;;;;18.60;4.05;;;16.00;66.60;;;;;;4037022;29;20055;-65
2023/02/01 02:12:43;;;;;;;17.65;3.47;;;16.10;66.30;;;;;;4048448;29;20056;-65
2023/02/01 02:15:25;;;;;;;15.70;4.32;;;16.20;65.50;;;;;;4048662;29;20043;-65
2023/02/01 02:18:11;;;;;;;15.55;3.70;;;16.20;65.30;;;;;;4053104;29;20526;-66
2023/02/01 02:21:13;;;;;;;13.52;3.58;;;16.30;65.20;;;;;;4063332;29;20096;-66
2023/02/01 02:24:20;;;;;;;15.98;2.88;;;16.30;65.20;;;;;;4063527;29;20059;-65
2023/02/01 02:27:24;;;;;;;17.17;3.95;;;16.40;64.70;;;;;;4063651;29;20059;-66
2023/02/01 02:31:00;;;;;;;15.50;3.42;;;16.40;64.80;;;;;;4047990;29;20055;-65
2023/02/01 02:34:11;;;;;;;16.23;3.63;;;16.40;64.80;;;;;;4048088;29;20055;-65
2023/02/01 02:37:03;;;;;;;11.47;3.13;;;16.40;64.70;;;;;;4048166;29;20068;-66
2023/02/01 02:39:55;;;;;;;17.00;3.20;;;16.40;64.60;;;;;;4047526;29;20413;-66
2023/02/01 02:48:52;;;;;;;14.18;3.42;;;16.30;65.50;;;;;;4051085;29;20192;-66
2023/02/01 02:54:51;;;;;;;15.55;3.17;;;16.40;65.20;;;;;;4051750;29;20124;-65
2023/02/01 03:06:39;;;;;;;17.27;4.35;;;16.50;64.60;;;;;;4051372;29;20055;-66
2023/02/01 03:09:27;;;;;;;17.17;3.55;;;16.50;64.40;;;;;;4036142;29;20051;-66
2023/02/01 03:15:13;;;;;;;17.88;3.72;;;16.50;64.70;;;;;;4035825;29;20059;-66
2023/02/01 03:17:58;;;;;;;15.40;3.85;;;16.40;64.80;;;;;;4047278;29;20135;-66
2023/02/01 03:20:45;;;;;;;17.92;4.45;;;16.40;64.60;;;;;;4051114;29;20081;-65
2023/02/01 03:23:34;;;;;;;19.00;3.85;;;16.40;64.80;;;;;;4036051;29;20070;-65
2023/02/01 03:26:18;;;;;;;14.82;4.13;;;16.40;64.80;;;;;;4047437;29;20180;-65
2023/02/01 03:29:07;;;;;;;14.35;3.47;;;16.40;64.70;;;;;;4035550;29;20150;-65
2023/02/01 03:31:48;;;;;;;17.90;4.10;;;16.40;64.80;;;;;;4046874;29;20051;-65
2023/02/01 03:34:29;;;;;;;14.75;3.83;;;16.30;65.00;;;;;;4040425;29;20187;-65
2023/02/01 03:37:13;;;;;;;11.93;3.63;;;16.30;65.10;;;;;;4062477;29;20059;-65
2023/02/01 03:40:01;;;;;;;16.65;4.28;;;16.30;65.20;;;;;;4047506;29;20060;-65
2023/02/01 03:42:49;;;;;;;18.65;4.10;;;16.30;64.90;;;;;;4046549;29;20668;-66
2023/02/01 03:45:35;;;;;;;17.73;3.42;;;16.20;65.00;;;;;;4035274;29;20067;-65
2023/02/01 03:48:19;;;;;;;13.20;3.50;;;16.20;65.20;;;;;;4037637;29;20067;-66
2023/02/01 03:51:04;;;;;;;14.45;3.25;;;16.20;65.30;;;;;;4051195;29;20079;-65
2023/02/01 03:53:48;;;;;;;11.82;3.90;;;16.10;65.30;;;;;;4051049;29;20604;-65
2023/02/01 03:56:33;;;;;;;11.52;3.25;;;16.10;65.60;;;;;;4062949;29;20111;-66
2023/02/01 03:59:15;;;;;;;20.45;4.22;;;16.10;66.00;;;;;;4051210;29;20055;-65
2023/02/01 04:01:56;;;;;;;22.30;3.65;;;16.10;66.00;;;;;;4062005;29;20063;-65
2023/02/01 04:04:37;;;;;;;17.55;3.65;;;16.20;65.70;;;;;;4040207;29;20052;-65
2023/02/01 04:07:18;;;;;;;15.48;3.92;;;16.20;65.30;;;;;;4050910;29;20055;-66
2023/02/01 04:09:59;;;;;;;19.88;4.30;;;16.20;65.00;;;;;;4062692;29;20047;-65
2023/02/01 04:12:42;;;;;;;13.80;3.40;;;16.30;65.20;;;;;;4051144;29;20059;-65
2023/02/01 04:15:22;;;;;;;12.50;3.78;;;16.20;65.40;;;;;;4062844;29;20059;-65
2023/02/01 04:18:03;;;;;;;14.20;3.42;;;16.20;65.30;;;;;;4050781;29;20114;-65
2023/02/01 04:20:45;;;;;;;15.95;3.63;;;16.30;64.80;;;;;;4062582;29;20419;-66
2023/02/01 04:23:26;;;;;;;18.48;3.92;;;16.30;64.90;;;;;;4062319;29;20184;-66
2023/02/01 04:26:06;;;;;;;15.02;3.42;;;16.30;64.90;;;;;;4062498;29;20047;-65
2023/02/01 04:28:49;;;;;;;19.10;4.40;;;16.30;64.70;;;;;;4062721;29;20051;-65
2023/02/01 04:31:30;;;;;;;17.05;3.70;;;16.30;65.00;;;;;;4050474;29;20110;-65
2023/02/01 04:34:10;;;;;;;15.67;3.33;;;16.20;65.20;;;;;;4062136;29;20543;-65
2023/02/01 04:36:51;;;;;;;16.70;3.88;;;16.30;65.30;;;;;;4062512;29;20179;-66
2023/02/01 04:39:32;;;;;;;16.00;3.78;;;16.30;65.00;;;;;;4046782;29;20071;-65
2023/02/01 04:42:14;;;;;;;16.88;3.03;;;16.30;64.60;;;;;;4047588;29;20111;-66
2023/02/01 04:44:56;;;;;;;17.45;3.58;;;16.30;64.70;;;;;;4050945;29;20058;-66
2023/02/01 04:47:37;;;;;;;13.48;3.67;;;16.30;64.60;;;;;;4064385;29;20543;-65
2023/02/01 04:50:18;;;;;;;16.50;3.70;;;16.20;64.90;;;;;;4064144;29;20059;-64
2023/02/01 04:52:59;;;;;;;18.73;4.18;;;16.10;65.20;;;;;;4064892;29;20079;-65
2023/02/01 04:55:40;;;;;;;15.00;3.25;;;16.00;65.50;;;;;;4064980;29;20047;-65
2023/02/01 04:58:21;;;;;;;15.15;3.20;;;16.00;66.10;;;;;;4065171;29;20391;-65
2023/02/01 05:01:05;;;;;;;16.88;4.20;;;15.90;66.30;;;;;;4064856;29;20072;-65
2023/02/01 05:03:46;;;;;;;16.77;3.65;;;16.00;66.20;;;;;;4064570;29;20107;-65
2023/02/01 05:06:27;;;;;;;21.52;4.47;;;16.00;65.80;;;;;;4049723;29;20063;-65
2023/02/01 05:09:08;;;;;;;16.30;4.72;;;16.00;66.00;;;;;;4049485;29;20068;-64
2023/02/01 05:14:48;;;;;;;18.35;4.10;;;15.90;66.50;;;;;;4048889;29;20179;-65
2023/02/01 05:17:31;;;;;;;19.52;4.43;;;16.00;66.20;;;;;;4064494;29;20492;-65
2023/02/01 05:20:12;;;;;;;16.27;4.45;;;16.10;65.70;;;;;;4064799;29;20051;-65
2023/02/01 05:22:53;;;;;;;17.13;3.53;;;16.20;65.50;;;;;;4064775;29;20447;-65
2023/02/01 05:25:34;;;;;;;15.98;3.90;;;16.30;65.20;;;;;;4064919;29;20598;-65
2023/02/01 05:28:15;;;;;;;19.05;4.15;;;16.30;65.20;;;;;;4065074;29;20117;-63
2023/02/01 05:30:56;;;;;;;13.82;4.18;;;16.30;65.00;;;;;;4064712;29;20071;-65
2023/02/01 05:33:38;;;;;;;18.15;3.28;;;16.30;65.00;;;;;;4060513;29;20408;-65
2023/02/01 05:36:19;;;;;;;10.45;2.28;;;16.30;65.20;;;;;;4064814;29;20499;-65
2023/02/01 05:39:00;;;;;;;14.88;3.92;;;16.20;65.10;;;;;;4053145;29;20067;-65
2023/02/01 05:41:41;;;;;;;14.43;3.25;;;16.10;65.30;;;;;;4064446;29;20055;-65
2023/02/01 05:44:22;;;;;;;16.58;5.00;;;16.20;65.50;;;;;;4064802;29;20055;-65
2023/02/01 05:47:03;;;;;;;13.73;3.20;;;16.20;65.40;;;;;;4064285;29;20059;-65
2023/02/01 05:49:46;;;;;;;19.45;4.22;;;16.30;65.20;;;;;;4064135;29;20055;-65
2023/02/01 05:52:27;;;;;;;11.23;3.30;;;16.30;65.10;;;;;;4063768;29;20054;-69
2023/02/01 05:55:08;;;;;;;15.52;3.53;;;16.30;64.70;;;;;;4064072;29;20063;-65
2023/02/01 05:57:49;;;;;;;11.45;3.17;;;16.30;65.00;;;;;;4064141;29;20059;-65
2023/02/01 06:00:31;;;;;;;15.25;4.35;;;16.20;64.90;;;;;;4064396;29;20103;-66
2023/02/01 06:03:12;;;;;;;17.48;3.10;;;16.20;65.40;;;;;;4063869;29;20179;-66
2023/02/01 06:05:54;;;;;;;10.15;2.70;;;16.10;65.50;;;;;;4060060;29;20047;-65
2023/02/01 06:08:35;;;;;;;17.20;3.97;;;16.10;65.40;;;;;;4064314;29;20596;-65
2023/02/01 06:11:16;;;;;;;11.13;3.65;;;16.10;65.50;;;;;;4064085;29;20058;-65
2023/02/01 06:14:11;;;;;;;10.90;3.25;;;16.10;65.60;;;;;;4063700;29;20051;-65
2023/02/01 06:16:52;;;;;;;8.50;2.33;;;16.10;65.70;;;;;;4064212;29;20083;-65
2023/02/01 06:19:33;;;;;;;18.30;3.95;;;16.10;65.60;;;;;;4063977;29;20188;-65
2023/02/01 06:22:15;;;;;;;19.60;4.25;;;16.10;65.40;;;;;;4048395;29;20200;-65
2023/02/01 06:24:58;;;;;;;13.35;3.92;;;16.10;65.60;;;;;;4047426;29;20051;-65
2023/02/01 06:27:39;;;;;;;13.57;3.47;;;16.20;65.40;;;;;;4048282;29;20054;-65
2023/02/01 06:30:20;;;;;;;17.05;3.13;;;16.20;65.20;;;;;;4048287;29;20506;-65
2023/02/01 06:33:01;;;;;;;;;;;16.30;64.90;;;;;;4037198;29;20709;-65
2023/02/01 06:35:44;;;;;;;14.17;3.50;;;16.40;65.00;;;;;;4051356;29;20401;-65
2023/02/01 06:38:27;;;;;;;14.50;3.53;;;16.40;64.60;;;;;;4063257;29;20363;-65
2023/02/01 06:41:08;;;;;;;11.20;3.00;;;16.40;64.30;;;;;;4063398;29;20103;-65
2023/02/01 06:43:49;;;;;;;;;;;16.40;64.50;;;;;;4064078;29;20067;-66
2023/02/01 06:46:30;;;;;;;18.90;3.78;;;16.40;64.70;;;;;;4063753;29;20437;-65
2023/02/01 06:49:11;;;;;;;16.70;5.03;;;16.30;64.90;;;;;;4063268;29;20059;-65
2023/02/01 06:51:52;;;;;;;17.48;3.53;;;16.30;65.20;;;;;;4063024;29;20059;-65
2023/02/01 06:54:37;;;;;;;19.60;2.72;;;16.20;65.50;;;;;;4047873;29;20583;-65
2023/02/01 06:57:18;;;;;;;15.85;3.53;;;16.10;65.80;;;;;;4047692;29;20060;-65
2023/02/01 06:59:59;;;;;;;18.08;3.63;;;16.10;65.80;;;;;;4047474;29;20161;-65
2023/02/01 07:02:40;;;;;;;15.18;4.20;;;16.00;65.90;;;;;;4047529;29;20495;-69
2023/02/01 07:05:21;;;;;;;16.42;3.53;;;16.00;66.10;;;;;;4047432;29;20108;-70
2023/02/01 07:08:02;;;;;;;16.90;4.00;;;15.90;66.60;;;;;;4059368;29;20054;-70
2023/02/01 07:10:45;;;;;;;16.05;3.53;;;15.90;66.70;;;;;;4078507;29;20509;-70
2023/02/01 07:13:25;;;;;;;19.13;3.40;;;16.00;66.80;;;;;;4078396;29;20137;-69
2023/02/01 07:16:10;;;;;;;9.40;2.95;;;16.10;66.70;;;;;;4078251;29;20134;-72
2023/02/01 07:18:51;;;;;;;13.50;3.67;;;16.30;66.20;;;;;;4078175;29;20101;-73
2023/02/01 07:21:32;;;;;;;20.83;4.35;;;16.40;65.70;;;;;;4078324;29;20058;-72
2023/02/01 07:24:14;;;;;;;18.75;4.28;;;16.50;65.10;;;;;;4044265;29;20414;-71
2023/02/01 07:26:56;;;;;;;20.15;3.55;;;16.50;65.10;;;;;;4062514;29;20058;-71
2023/02/01 07:29:37;;;;;;;13.90;4.22;;;16.50;65.30;;;;;;4050934;29;20055;-71
2023/02/01 07:32:18;;;;;;;15.00;3.55;;;16.40;65.30;;;;;;4062798;29;20055;-70
2023/02/01 07:34:59;;;;;;;17.55;4.13;;;16.40;65.60;;;;;;4062249;29;20067;-70
2023/02/01 07:37:40;;;;;;;16.83;3.58;;;16.40;66.00;;;;;;4062808;29;20072;-69
2023/02/01 07:40:28;;;;;;;16.73;3.75;;;16.40;66.00;;;;;;4062886;29;20055;-69
2023/02/01 07:43:10;;;;;;;15.10;3.50;;;16.50;65.50;;;;;;4062651;29;20570;-70
2023/02/01 07:45:52;;;;;;;18.98;3.80;;;16.60;65.10;;;;;;4062388;29;20047;-70
2023/02/01 07:48:34;;;;;;;18.15;3.63;;;16.70;64.90;;;;;;4051424;29;20123;-70
2023/02/01 07:51:16;;;;;;;;;;;16.80;64.40;;;;;;4057520;29;20511;-65
2023/02/01 07:53:57;;;;;;;18.00;4.45;;;16.90;64.30;;;;;;4062500;29;20474;-65
2023/02/01 07:56:38;;;;;;;18.48;4.55;;;16.90;64.20;;;;;;4062653;29;20050;-64
2023/02/01 07:59:21;;;;;;;22.45;4.90;;;16.90;64.20;;;;;;4062463;29;20152;-64
2023/02/01 08:02:01;;;;;;;17.80;3.90;;;16.80;64.30;;;;;;4062418;29;20047;-64
2023/02/01 08:04:42;;;;;;;13.90;3.50;;;16.80;64.70;;;;;;4061656;29;20055;-64
2023/02/01 08:07:23;;;;;;;15.35;4.03;;;16.80;64.50;;;;;;4046940;29;20059;-63
2023/02/01 08:10:10;;;;;;;17.42;3.35;;;16.80;64.20;;;;;;4046795;29;20132;-65
2023/02/01 08:12:51;;;;;;;19.60;3.38;;;16.90;63.80;;;;;;4046674;29;20079;-64
2023/02/01 08:15:34;;;;;;;21.52;4.53;;;16.80;63.70;;;;;;4059799;29;20135;-69
2023/02/01 08:18:16;;;;;;;15.43;3.40;;;16.90;64.20;;;;;;4065272;29;20423;-69
2023/02/01 08:20:57;;;;;;;14.40;3.50;;;17.00;64.50;;;;;;4065670;29;20055;-68
2023/02/01 08:23:38;;;;;;;13.82;3.83;;;17.00;64.00;;;;;;4065181;29;20179;-69
2023/02/01 08:26:21;;;;;;;15.20;4.18;;;17.00;63.60;;;;;;4065513;29;20063;-70
2023/02/01 08:29:05;;;;;;;19.25;3.58;;;17.00;63.30;;;;;;4065775;29;20596;-69
2023/02/01 08:31:47;;;;;;;26.13;3.53;;;17.00;62.80;;;;;;4065656;29;20094;-68
2023/02/01 08:34:29;;;;;;;20.13;4.82;;;17.00;62.90;;;;;;4050113;29;20111;-68
2023/02/01 08:37:10;;;;;;;14.23;4.20;;;16.90;63.30;;;;;;4048867;29;20144;-68
2023/02/01 08:39:51;;;;;;;18.67;4.05;;;16.90;63.60;;;;;;4065297;29;20107;-68
2023/02/01 08:45:31;;;;;;;15.95;3.85;;;16.90;63.70;;;;;;4064427;29;20441;-68
2023/02/01 08:48:14;;;;;;;14.90;3.95;;;16.90;63.50;;;;;;4051602;29;20059;-67
2023/02/01 08:50:55;;;;;;;14.70;3.55;;;16.80;63.40;;;;;;4060165;29;20525;-68
2023/02/01 08:53:36;;;;;;;17.27;3.72;;;16.80;63.40;;;;;;4060425;29;20062;-67
2023/02/01 08:56:18;;;;;;;;;;;16.70;63.70;;;;;;4065676;29;20487;-67
2023/02/01 08:58:58;;;;;;;18.67;4.50;;;16.60;64.20;;;;;;4053347;29;20041;-67
2023/02/01 09:01:39;;;;;;;20.33;3.97;;;16.60;64.50;;;;;;4049834;29;20064;-67
2023/02/01 09:04:22;;;;;;;14.73;3.63;;;16.70;64.40;;;;;;4064998;29;20063;-67
2023/02/01 09:07:03;;;;;;;17.80;3.70;;;16.70;64.20;;;;;;4049139;29;20048;-67
2023/02/01 09:09:44;;;;;;;15.55;3.70;;;16.70;64.00;;;;;;4059783;29;20067;-67
2023/02/01 09:12:25;;;;;;;21.13;3.78;;;16.70;64.10;;;;;;4053213;29;20543;-67
2023/02/01 09:15:08;;;;;;;13.75;3.50;;;16.60;64.00;;;;;;4063657;29;20107;-67
2023/02/01 09:17:49;;;;;;;18.20;3.72;;;16.60;64.40;;;;;;4064846;29;20046;-68
2023/02/01 09:20:32;;;;;;;17.77;4.25;;;16.50;64.60;;;;;;4064610;29;20067;-67
2023/02/01 09:23:13;;;;;;;9.38;3.00;;;16.40;64.70;;;;;;4062797;29;20051;-67
2023/02/01 09:25:53;;;;;;;14.70;2.67;;;16.30;65.20;;;;;;4064768;29;20198;-68
2023/02/01 09:28:34;;;;;;;16.10;3.58;;;16.20;65.80;;;;;;4063542;29;20138;-66
2023/02/01 09:31:16;;;;;;;11.00;2.78;;;16.20;65.60;;;;;;4051775;29;20051;-67
2023/02/01 09:33:57;;;;;;;23.02;3.60;;;16.10;65.70;;;;;;4050145;29;20046;-68
2023/02/01 09:36:39;;;;;;;14.02;3.47;;;16.10;66.10;;;;;;4062080;29;20180;-68
2023/02/01 09:39:20;;;;;;;15.10;3.38;;;16.10;65.90;;;;;;4062292;29;20050;-68
2023/02/01 09:42:15;;;;;;;13.80;3.22;;;16.10;65.70;;;;;;4061807;29;20620;-68
2023/02/01 09:45:15;;;;;;;14.82;2.95;;;16.00;65.60;;;;;;4061622;29;20099;-67
2023/02/01 09:48:02;;;;;;;13.52;3.88;;;15.90;65.80;;;;;;4050120;29;20877;-68
2023/02/01 09:50:46;;;;;;;15.63;3.60;;;15.90;65.90;;;;;;4062176;29;20528;-62
2023/02/01 09:53:34;;;;;;;18.98;3.22;;;16.00;66.00;;;;;;4062299;29;20059;-61
2023/02/01 09:56:21;;;;;;;11.85;2.90;;;16.10;66.30;;;;;;4061875;29;20583;-69
2023/02/01 09:59:10;;;;;;;25.63;3.03;;;16.10;66.50;;;;;;4061948;29;20126;-70
2023/02/01 10:01:51;;;;;;;10.25;3.33;;;16.10;67.00;;;;;;4061807;29;20058;-69
2023/02/01 10:04:33;;;;;;;13.85;2.83;;;16.10;66.90;;;;;;4050264;29;20102;-71
2023/02/01 10:07:25;;;;;;;14.88;2.97;;;16.20;66.90;;;;;;4060908;29;20118;-71
2023/02/01 10:10:14;;;;;;;12.27;2.38;;;16.20;66.40;;;;;;4061320;29;20507;-69
2023/02/01 10:13:17;;;;;;;16.23;3.30;;;16.20;66.00;;;;;;4060993;29;20058;-71
2023/02/01 10:16:07;;;;;;;13.90;3.13;;;16.30;66.00;;;;;;4061576;29;20051;-71
2023/02/01 10:19:14;;;;;;;13.68;3.55;;;16.20;65.90;;;;;;4061301;29;20062;-70
2023/02/01 10:21:59;;;;;;;12.40;3.22;;;16.10;66.10;;;;;;4061744;29;20059;-70
2023/02/01 10:24:47;;;;;;;11.80;3.55;;;16.10;66.30;;;;;;4061039;29;20063;-70
2023/02/01 10:27:35;;;;;;;13.98;3.13;;;16.10;66.20;;;;;;4061057;29;20210;-71
2023/02/01 10:30:22;;;;;;;9.02;2.83;;;16.10;66.30;;;;;;4061319;29;20074;-70
2023/02/01 10:33:17;;;;;;;12.48;3.13;;;16.10;66.10;;;;;;4061582;29;20098;-69
2023/02/01 10:36:06;;;;;;;12.02;3.08;;;16.00;66.50;;;;;;4060622;29;20130;-69
2023/02/01 10:38:47;;;;;;;14.27;2.85;;;16.00;66.70;;;;;;4061196;29;20059;-69
2023/02/01 10:41:33;;;;;;;11.13;3.25;;;15.90;67.00;;;;;;4061068;29;20114;-69
2023/02/01 10:44:17;;;;;;;15.77;3.13;;;15.90;67.10;;;;;;4057363;29;20055;-70
2023/02/01 10:46:58;;;;;;;11.55;3.05;;;15.90;67.10;;;;;;4051891;29;20813;-68
2023/02/01 10:49:44;;;;;;;9.75;2.47;;;15.90;67.20;;;;;;4061570;29;20103;-69
2023/02/01 10:52:37;;;;;;;15.18;3.33;;;15.90;67.30;;;;;;4060658;29;20059;-69
2023/02/01 10:55:30;;;;;;;13.88;2.88;;;16.10;68.10;;;;;;4060662;29;20111;-69
2023/02/01 10:58:17;;;;;;;21.42;3.35;;;16.40;67.40;;;;;;4061146;29;20059;-69
2023/02/01 11:01:03;;;;;;;13.35;2.75;;;16.70;66.20;;;;;;4061232;29;20063;-68
2023/02/01 11:03:45;;;;;;;10.77;2.70;;;17.10;65.00;;;;;;4060474;29;20075;-69
2023/02/01 11:06:30;;;;;;;10.65;2.78;;;17.40;63.70;;;;;;4060688;29;20135;-69
2023/02/01 11:09:17;;;;;;;10.45;3.03;;;17.70;62.30;;;;;;4060943;29;20055;-69
2023/02/01 11:12:00;;;;;;;13.07;3.33;;;18.00;61.70;;;;;;4049696;29;20122;-70
2023/02/01 11:14:41;;;;;;;11.32;2.95;;;18.20;61.10;;;;;;4048587;29;20111;-70
2023/02/01 11:17:28;;;;;;;8.68;2.60;;;18.40;60.30;;;;;;4060786;29;20110;-71
2023/02/01 11:20:15;;;;;;;12.75;3.20;;;18.50;60.10;;;;;;4060754;29;20066;-70
2023/02/01 11:22:57;;;;;;;7.93;2.22;;;18.50;60.10;;;;;;4060158;29;20087;-70
2023/02/01 11:25:38;;;;;;;11.35;2.35;;;18.60;60.40;;;;;;4060745;29;20067;-70
2023/02/01 11:28:22;;;;;;;7.78;2.70;;;18.60;60.40;;;;;;4060503;29;20043;-70
2023/02/01 11:31:06;;;;;;;0.40;0.35;;;18.60;59.30;;;;;;4049218;29;20126;-69
2023/02/01 11:33:53;;;;;;;2.22;2.03;;;18.60;59.80;;;;;;4060194;29;20051;-70
2023/02/01 11:36:36;;;;;;;0.85;0.85;;;18.40;60.90;;;;;;4060436;29;20055;-70
2023/02/01 11:39:26;;;;;;;8.52;6.55;;;18.30;61.10;;;;;;4047807;29;20091;-70
2023/02/01 11:42:14;;;;;;;25.30;11.95;;;18.10;60.80;;;;;;4048060;29;20057;-68
2023/02/01 11:45:18;;;;;;;0.85;0.50;;;17.90;61.00;;;;;;4060429;29;20051;-69
2023/02/01 11:48:00;;;;;;;3.08;0.80;;;17.80;62.80;;;;;;4060153;29;20121;-70
2023/02/01 11:50:52;;;;;;;1.35;0.85;;;17.60;64.20;;;;;;4060182;29;20142;-68
2023/02/01 11:53:48;;;;;;;1.25;0.38;;;17.70;64.50;;;;;;4058803;29;20511;-68
2023/02/01 11:56:36;;;;;;;1.98;0.43;;;17.70;64.20;;;;;;4059894;29;20055;-70
2023/02/01 11:59:34;;;;;;;1.42;0.60;;;17.80;62.90;;;;;;4060432;29;20063;-70
2023/02/01 12:02:51;;;;;;;1.77;0.95;;;17.90;63.30;;;;;;4048762;29;20068;-70
2023/02/01 12:05:48;;;;;;;1.75;0.70;;;17.90;62.90;;;;;;4059449;29;21000;-70
2023/02/01 12:09:08;;;;;;;2.40;0.90;;;18.00;63.20;;;;;;4059274;29;20119;-71
2023/02/01 12:12:03;;;;;;;4.05;0.90;;;18.00;63.10;;;;;;4042195;29;20075;-70
2023/02/01 12:15:07;;;;;;;4.10;0.70;;;18.00;62.80;;;;;;4060033;29;20043;-70
2023/02/01 12:18:29;;;;;;;7.57;1.42;;;18.00;62.60;;;;;;4059495;29;20155;-71
2023/02/01 12:21:29;;;;;;;5.20;1.65;;;17.90;63.00;;;;;;4054881;29;20059;-70
2023/02/01 12:24:34;;;;;;;3.60;1.38;;;17.90;63.50;;;;;;4059752;29;20067;-70
2023/02/01 12:27:37;;;;;;;6.68;1.52;;;17.80;63.70;;;;;;4058993;29;20180;-70
2023/02/01 12:30:40;;;;;;;6.75;1.60;;;17.60;64.00;;;;;;4059808;29;20532;-70
2023/02/01 12:33:32;;;;;;;5.43;1.73;;;17.60;64.60;;;;;;4059613;29;20063;-70
2023/02/01 12:36:20;;;;;;;8.18;2.00;;;17.60;64.60;;;;;;4058887;29;20056;-69
2023/02/01 12:39:10;;;;;;;10.25;1.92;;;17.70;64.20;;;;;;4059832;29;20063;-70
2023/02/01 12:41:59;;;;;;;7.85;2.80;;;17.80;63.90;;;;;;4060035;29;20131;-70
2023/02/01 12:44:48;;;;;;;15.95;3.15;;;17.90;63.10;;;;;;4059638;29;20627;-70
2023/02/01 12:47:36;;;;;;;23.33;4.90;;;17.90;62.30;;;;;;4046865;29;20115;-70
2023/02/01 12:50:22;;;;;;;13.93;3.65;;;17.90;62.80;;;;;;4059218;29;20055;-70
2023/02/01 12:53:14;;;;;;;18.52;4.30;;;17.90;63.30;;;;;;4059605;29;20051;-69
2023/02/01 12:55:57;;;;;;;16.08;3.88;;;17.90;62.80;;;;;;4059480;29;20070;-69
2023/02/01 12:58:43;;;;;;;17.63;3.67;;;17.80;63.00;;;;;;4059374;29;20055;-70
2023/02/01 13:01:29;;;;;;;16.55;3.97;;;17.70;63.60;;;;;;4059773;29;20059;-69
2023/02/01 13:04:16;;;;;;;20.92;4.65;;;17.70;63.70;;;;;;4055470;29;20071;-70
2023/02/01 13:07:04;;;;;;;21.30;3.88;;;17.60;63.40;;;;;;4061954;29;20521;-70
2023/02/01 13:09:50;;;;;;;15.77;3.63;;;17.70;63.40;;;;;;4062006;29;20055;-70
2023/02/01 13:12:37;;;;;;;15.88;3.67;;;17.70;63.20;;;;;;4062240;29;20108;-70
2023/02/01 13:15:24;;;;;;;15.55;3.55;;;17.60;63.60;;;;;;4062256;29;20271;-71
2023/02/01 13:18:09;;;;;;;15.88;3.53;;;17.50;63.30;;;;;;4062119;29;20051;-70
2023/02/01 13:20:56;;;;;;;17.98;3.75;;;17.50;64.00;;;;;;4061801;29;20055;-72
2023/02/01 13:23:40;;;;;;;18.65;4.05;;;17.40;64.30;;;;;;4061878;29;20063;-71
2023/02/01 13:26:23;;;;;;;15.57;3.45;;;17.30;64.50;;;;;;4061750;29;20203;-72
2023/02/01 13:29:07;;;;;;;17.27;4.18;;;17.40;64.10;;;;;;4062636;29;20055;-72
2023/02/01 13:32:17;;;;;;;17.23;3.88;;;17.50;64.00;;;;;;4064777;29;20058;-71
2023/02/01 13:35:17;;;;;;;15.50;3.88;;;17.60;63.40;;;;;;4059038;29;20051;-71
2023/02/01 13:38:23;;;;;;;18.23;3.25;;;17.70;63.40;;;;;;4064199;29;20477;-71
2023/02/01 13:41:24;;;;;;;15.05;3.80;;;17.80;63.10;;;;;;4064139;29;20050;-64
2023/02/01 13:44:17;;;;;;;16.42;3.78;;;17.90;62.80;;;;;;4052607;29;20071;-66
2023/02/01 13:47:02;;;;;;;12.95;3.42;;;17.90;62.30;;;;;;4064122;29;20571;-65
2023/02/01 13:49:43;;;;;;;14.02;3.72;;;17.90;62.30;;;;;;4064200;29;20188;-65
2023/02/01 13:52:37;;;;;;;12.75;4.18;;;17.80;63.40;;;;;;4064076;29;20179;-64
2023/02/01 13:55:31;;;;;;;12.90;2.65;;;17.70;62.10;;;;;;4063711;29;20071;-65
2023/02/01 13:58:19;;;;;;;16.92;4.07;;;17.70;63.20;;;;;;4052422;29;20051;-65
2023/02/01 14:01:33;;;;;;;18.25;4.72;;;17.60;63.30;;;;;;4048464;29;20279;-64
2023/02/01 14:04:49;;;;;;;15.73;4.30;;;17.60;62.80;;;;;;4056005;29;20082;-64
2023/02/01 14:07:31;;;;;;;15.60;4.40;;;17.60;63.10;;;;;;4063937;29;20059;-64
2023/02/01 14:10:47;;;;;;;15.32;3.55;;;17.60;63.30;;;;;;4064150;29;20204;-63
2023/02/01 14:13:32;;;;;;;18.88;4.15;;;17.50;63.60;;;;;;4063922;29;20050;-64
2023/02/01 14:16:15;;;;;;;16.55;3.63;;;17.40;63.90;;;;;;4048628;29;20388;-65
2023/02/01 14:19:03;;;;;;;12.27;3.45;;;17.40;64.30;;;;;;4048140;29;20062;-65
2023/02/01 14:21:53;;;;;;;12.68;3.65;;;17.30;64.10;;;;;;4048012;29;20075;-65
2023/02/01 14:24:37;;;;;;;12.40;2.53;;;17.30;64.50;;;;;;4048585;29;20298;-65
2023/02/01 14:27:22;;;;;;;18.95;4.28;;;17.30;64.80;;;;;;4048320;29;20051;-65
2023/02/01 14:30:08;;;;;;;21.83;4.68;;;17.30;64.70;;;;;;4048421;29;20048;-64
2023/02/01 14:32:51;;;;;;;13.65;3.55;;;17.30;64.50;;;;;;4048370;29;20484;-65
2023/02/01 14:35:33;;;;;;;16.90;4.38;;;17.30;64.50;;;;;;4047841;29;20055;-65
2023/02/01 14:38:15;;;;;;;14.25;3.58;;;17.20;64.50;;;;;;4048164;29;20144;-65
2023/02/01 14:40:56;;;;;;;17.00;4.05;;;17.20;64.50;;;;;;4048147;29;20059;-64